Lane, Nevada
Current Conditions -  °F | °C
As of 6:53 PM on Thursday 27 Nov 2014 (Local Time) from KELY Reporting Station
Clear Clear  
Wind Chill: 39°   Ceiling: Unl
Heat Index: 39°   Visibility: 10mi
Dew Point: 14°   Wind: 3mph
Humidity: 36%   Direction: 90°E
Pressure: 30.26"   Gusts: NA
Location:  39.5572°N, 115.033°W
Report Text: KELY 280253Z AUTO 09003KT 10SM CLR 04/M10 A3026 RMK AO2 SLP242 T00391100 58002
Loading
Personal Weather Stations






























Interactive Weather Map New forecast layout! Learn more

10-Day Weather Forecast

Advertisements
Track Severe Weather on mobile